sensor_id;sensor_type;location;lat;lon;timestamp;P1;durP1;ratioP1;P2;durP2;ratioP2
19780;SDS011;10050;55.492;13.506;2023-02-28T00:00:30;16.50;;;8.30;;
19780;SDS011;10050;55.492;13.506;2023-02-28T00:02:56;16.93;;;8.13;;
19780;SDS011;10050;55.492;13.506;2023-02-28T00:05:22;15.67;;;7.87;;
19780;SDS011;10050;55.492;13.506;2023-02-28T00:07:50;19.27;;;9.20;;
19780;SDS011;10050;55.492;13.506;2023-02-28T00:10:17;16.83;;;7.70;;
19780;SDS011;10050;55.492;13.506;2023-02-28T00:12:46;13.93;;;7.43;;
19780;SDS011;10050;55.492;13.506;2023-02-28T00:15:12;13.20;;;7.23;;
19780;SDS011;10050;55.492;13.506;2023-02-28T00:17:38;13.00;;;7.50;;
19780;SDS011;10050;55.492;13.506;2023-02-28T00:20:04;14.57;;;7.83;;
19780;SDS011;10050;55.492;13.506;2023-02-28T00:22:37;11.43;;;6.83;;
19780;SDS011;10050;55.492;13.506;2023-02-28T00:25:05;13.13;;;6.90;;
19780;SDS011;10050;55.492;13.506;2023-02-28T00:27:32;11.27;;;7.47;;
19780;SDS011;10050;55.492;13.506;2023-02-28T00:29:58;13.90;;;6.70;;
19780;SDS011;10050;55.492;13.506;2023-02-28T00:32:24;13.13;;;7.23;;
19780;SDS011;10050;55.492;13.506;2023-02-28T00:34:49;11.20;;;6.87;;
19780;SDS011;10050;55.492;13.506;2023-02-28T00:37:15;12.77;;;6.63;;
19780;SDS011;10050;55.492;13.506;2023-02-28T00:39:41;13.67;;;7.67;;
19780;SDS011;10050;55.492;13.506;2023-02-28T00:42:07;13.53;;;6.73;;
19780;SDS011;10050;55.492;13.506;2023-02-28T00:44:33;10.57;;;7.07;;
19780;SDS011;10050;55.492;13.506;2023-02-28T00:46:59;10.97;;;6.77;;
19780;SDS011;10050;55.492;13.506;2023-02-28T00:49:25;9.10;;;6.03;;
19780;SDS011;10050;55.492;13.506;2023-02-28T00:51:52;13.27;;;7.30;;
19780;SDS011;10050;55.492;13.506;2023-02-28T00:54:18;13.13;;;6.77;;
19780;SDS011;10050;55.492;13.506;2023-02-28T00:56:45;12.60;;;6.93;;
19780;SDS011;10050;55.492;13.506;2023-02-28T00:59:11;12.00;;;7.47;;
19780;SDS011;10050;55.492;13.506;2023-02-28T01:01:38;14.97;;;7.40;;
19780;SDS011;10050;55.492;13.506;2023-02-28T01:04:04;15.33;;;7.50;;
19780;SDS011;10050;55.492;13.506;2023-02-28T01:06:30;11.73;;;7.20;;
19780;SDS011;10050;55.492;13.506;2023-02-28T01:08:56;10.97;;;7.33;;
19780;SDS011;10050;55.492;13.506;2023-02-28T01:11:22;12.67;;;7.67;;
19780;SDS011;10050;55.492;13.506;2023-02-28T01:13:48;13.53;;;7.27;;
19780;SDS011;10050;55.492;13.506;2023-02-28T01:16:14;10.53;;;7.27;;
19780;SDS011;10050;55.492;13.506;2023-02-28T01:18:40;13.50;;;7.30;;
19780;SDS011;10050;55.492;13.506;2023-02-28T01:21:07;11.90;;;7.53;;
19780;SDS011;10050;55.492;13.506;2023-02-28T01:23:35;11.57;;;7.13;;
19780;SDS011;10050;55.492;13.506;2023-02-28T01:26:05;11.17;;;6.97;;
19780;SDS011;10050;55.492;13.506;2023-02-28T01:28:35;9.77;;;7.37;;
19780;SDS011;10050;55.492;13.506;2023-02-28T01:31:01;12.80;;;8.13;;
19780;SDS011;10050;55.492;13.506;2023-02-28T01:33:27;11.03;;;6.93;;
19780;SDS011;10050;55.492;13.506;2023-02-28T01:36:07;13.70;;;6.70;;
19780;SDS011;10050;55.492;13.506;2023-02-28T01:38:37;13.17;;;6.83;;
19780;SDS011;10050;55.492;13.506;2023-02-28T01:41:03;10.03;;;6.60;;
19780;SDS011;10050;55.492;13.506;2023-02-28T01:43:52;12.73;;;7.30;;
19780;SDS011;10050;55.492;13.506;2023-02-28T01:46:18;16.43;;;6.67;;
19780;SDS011;10050;55.492;13.506;2023-02-28T01:48:56;15.07;;;6.13;;
19780;SDS011;10050;55.492;13.506;2023-02-28T01:51:42;9.50;;;6.23;;
19780;SDS011;10050;55.492;13.506;2023-02-28T01:54:12;12.47;;;7.27;;
19780;SDS011;10050;55.492;13.506;2023-02-28T01:56:42;11.27;;;6.30;;
19780;SDS011;10050;55.492;13.506;2023-02-28T01:59:12;10.73;;;6.87;;
19780;SDS011;10050;55.492;13.506;2023-02-28T02:01:45;15.53;;;7.10;;
19780;SDS011;10050;55.492;13.506;2023-02-28T02:04:11;9.57;;;6.30;;
19780;SDS011;10050;55.492;13.506;2023-02-28T02:06:38;13.77;;;7.37;;
19780;SDS011;10050;55.492;13.506;2023-02-28T02:09:08;10.83;;;6.97;;
19780;SDS011;10050;55.492;13.506;2023-02-28T02:11:33;13.13;;;7.20;;
19780;SDS011;10050;55.492;13.506;2023-02-28T02:14:09;10.20;;;7.00;;
19780;SDS011;10050;55.492;13.506;2023-02-28T02:19:56;14.63;;;6.63;;
19780;SDS011;10050;55.492;13.506;2023-02-28T02:23:20;8.07;;;5.47;;
19780;SDS011;10050;55.492;13.506;2023-02-28T02:25:54;10.50;;;6.33;;
19780;SDS011;10050;55.492;13.506;2023-02-28T02:42:31;8.97;;;5.60;;
19780;SDS011;10050;55.492;13.506;2023-02-28T02:45:04;8.33;;;6.07;;
19780;SDS011;10050;55.492;13.506;2023-02-28T02:47:34;9.77;;;6.23;;
19780;SDS011;10050;55.492;13.506;2023-02-28T02:50:03;10.33;;;7.20;;
19780;SDS011;10050;55.492;13.506;2023-02-28T02:52:40;10.60;;;6.50;;
19780;SDS011;10050;55.492;13.506;2023-02-28T02:55:10;8.33;;;5.90;;
19780;SDS011;10050;55.492;13.506;2023-02-28T02:57:40;10.43;;;6.70;;
19780;SDS011;10050;55.492;13.506;2023-02-28T03:00:10;10.20;;;6.17;;
19780;SDS011;10050;55.492;13.506;2023-02-28T03:02:37;8.60;;;5.80;;
19780;SDS011;10050;55.492;13.506;2023-02-28T03:05:05;9.60;;;5.97;;
19780;SDS011;10050;55.492;13.506;2023-02-28T03:07:42;10.93;;;6.43;;
19780;SDS011;10050;55.492;13.506;2023-02-28T03:13:36;10.20;;;6.17;;
19780;SDS011;10050;55.492;13.506;2023-02-28T03:27:12;11.63;;;4.97;;
19780;SDS011;10050;55.492;13.506;2023-02-28T03:30:00;9.07;;;5.40;;
19780;SDS011;10050;55.492;13.506;2023-02-28T03:32:35;10.23;;;5.57;;
19780;SDS011;10050;55.492;13.506;2023-02-28T03:35:07;8.47;;;5.47;;
19780;SDS011;10050;55.492;13.506;2023-02-28T03:37:38;7.17;;;4.57;;
19780;SDS011;10050;55.492;13.506;2023-02-28T03:40:14;10.47;;;5.40;;
19780;SDS011;10050;55.492;13.506;2023-02-28T03:42:45;8.77;;;5.30;;
19780;SDS011;10050;55.492;13.506;2023-02-28T03:45:18;6.93;;;5.13;;
19780;SDS011;10050;55.492;13.506;2023-02-28T03:47:57;9.13;;;5.50;;
19780;SDS011;10050;55.492;13.506;2023-02-28T03:50:37;13.17;;;6.40;;
19780;SDS011;10050;55.492;13.506;2023-02-28T03:55:39;11.80;;;6.23;;
19780;SDS011;10050;55.492;13.506;2023-02-28T04:01:43;7.27;;;5.50;;
19780;SDS011;10050;55.492;13.506;2023-02-28T04:03:52;11.70;;;6.07;;
19780;SDS011;10050;55.492;13.506;2023-02-28T04:06:19;9.70;;;6.70;;
19780;SDS011;10050;55.492;13.506;2023-02-28T04:08:47;7.83;;;5.93;;
19780;SDS011;10050;55.492;13.506;2023-02-28T04:11:21;12.47;;;7.20;;
19780;SDS011;10050;55.492;13.506;2023-02-28T04:13:53;16.13;;;7.00;;
19780;SDS011;10050;55.492;13.506;2023-02-28T04:16:18;7.83;;;5.97;;
19780;SDS011;10050;55.492;13.506;2023-02-28T04:18:44;9.00;;;5.90;;
19780;SDS011;10050;55.492;13.506;2023-02-28T04:21:10;11.80;;;6.87;;
19780;SDS011;10050;55.492;13.506;2023-02-28T04:23:36;12.73;;;6.17;;
19780;SDS011;10050;55.492;13.506;2023-02-28T04:26:01;10.63;;;7.13;;
19780;SDS011;10050;55.492;13.506;2023-02-28T04:28:28;12.23;;;6.93;;
19780;SDS011;10050;55.492;13.506;2023-02-28T04:30:59;12.57;;;6.07;;
19780;SDS011;10050;55.492;13.506;2023-02-28T04:33:27;13.30;;;6.47;;
19780;SDS011;10050;55.492;13.506;2023-02-28T04:38:25;12.40;;;6.80;;
19780;SDS011;10050;55.492;13.506;2023-02-28T04:40:50;10.50;;;6.40;;
19780;SDS011;10050;55.492;13.506;2023-02-28T04:43:16;14.30;;;7.63;;
19780;SDS011;10050;55.492;13.506;2023-02-28T04:45:42;11.87;;;7.03;;
19780;SDS011;10050;55.492;13.506;2023-02-28T04:48:07;12.87;;;6.80;;
19780;SDS011;10050;55.492;13.506;2023-02-28T04:50:33;11.27;;;6.63;;
19780;SDS011;10050;55.492;13.506;2023-02-28T04:52:58;10.60;;;6.57;;
19780;SDS011;10050;55.492;13.506;2023-02-28T04:55:24;15.27;;;6.87;;
19780;SDS011;10050;55.492;13.506;2023-02-28T04:57:49;19.97;;;8.73;;
19780;SDS011;10050;55.492;13.506;2023-02-28T05:00:15;18.50;;;8.87;;
19780;SDS011;10050;55.492;13.506;2023-02-28T05:02:41;18.93;;;8.27;;
19780;SDS011;10050;55.492;13.506;2023-02-28T05:05:07;18.77;;;8.10;;
19780;SDS011;10050;55.492;13.506;2023-02-28T05:07:33;26.13;;;9.23;;
19780;SDS011;10050;55.492;13.506;2023-02-28T05:09:59;17.70;;;9.00;;
19780;SDS011;10050;55.492;13.506;2023-02-28T05:12:24;15.70;;;8.10;;
19780;SDS011;10050;55.492;13.506;2023-02-28T05:14:50;30.40;;;10.77;;
19780;SDS011;10050;55.492;13.506;2023-02-28T05:17:15;30.10;;;10.00;;
19780;SDS011;10050;55.492;13.506;2023-02-28T05:19:41;25.13;;;9.87;;
19780;SDS011;10050;55.492;13.506;2023-02-28T05:22:12;22.17;;;8.80;;
19780;SDS011;10050;55.492;13.506;2023-02-28T05:24:40;23.60;;;9.20;;
19780;SDS011;10050;55.492;13.506;2023-02-28T05:27:07;21.27;;;9.13;;
19780;SDS011;10050;55.492;13.506;2023-02-28T05:29:33;17.33;;;8.90;;
19780;SDS011;10050;55.492;13.506;2023-02-28T05:31:59;21.80;;;9.00;;
19780;SDS011;10050;55.492;13.506;2023-02-28T05:34:24;21.40;;;8.47;;
19780;SDS011;10050;55.492;13.506;2023-02-28T05:36:50;22.63;;;9.33;;
19780;SDS011;10050;55.492;13.506;2023-02-28T05:39:16;20.90;;;9.13;;
19780;SDS011;10050;55.492;13.506;2023-02-28T05:41:42;16.37;;;8.83;;
19780;SDS011;10050;55.492;13.506;2023-02-28T05:44:08;18.20;;;8.10;;
19780;SDS011;10050;55.492;13.506;2023-02-28T05:46:34;25.97;;;10.13;;
19780;SDS011;10050;55.492;13.506;2023-02-28T05:49:00;21.07;;;8.83;;
19780;SDS011;10050;55.492;13.506;2023-02-28T05:51:26;20.03;;;9.37;;
19780;SDS011;10050;55.492;13.506;2023-02-28T05:53:52;20.20;;;10.20;;
19780;SDS011;10050;55.492;13.506;2023-02-28T05:56:17;23.43;;;9.83;;
19780;SDS011;10050;55.492;13.506;2023-02-28T05:58:43;22.77;;;10.07;;
19780;SDS011;10050;55.492;13.506;2023-02-28T06:04:06;20.43;;;10.23;;
19780;SDS011;10050;55.492;13.506;2023-02-28T06:06:34;17.77;;;9.13;;
19780;SDS011;10050;55.492;13.506;2023-02-28T06:09:01;16.80;;;10.27;;
19780;SDS011;10050;55.492;13.506;2023-02-28T06:11:27;19.30;;;9.80;;
19780;SDS011;10050;55.492;13.506;2023-02-28T06:13:53;19.37;;;10.40;;
19780;SDS011;10050;55.492;13.506;2023-02-28T06:16:24;19.07;;;9.47;;
19780;SDS011;10050;55.492;13.506;2023-02-28T06:18:51;16.33;;;9.53;;
19780;SDS011;10050;55.492;13.506;2023-02-28T06:21:18;13.00;;;8.97;;
19780;SDS011;10050;55.492;13.506;2023-02-28T06:23:43;16.70;;;9.10;;
19780;SDS011;10050;55.492;13.506;2023-02-28T06:26:10;17.83;;;9.47;;
19780;SDS011;10050;55.492;13.506;2023-02-28T06:28:36;14.90;;;9.10;;
19780;SDS011;10050;55.492;13.506;2023-02-28T06:31:08;16.50;;;9.53;;
19780;SDS011;10050;55.492;13.506;2023-02-28T06:33:36;16.37;;;9.53;;
19780;SDS011;10050;55.492;13.506;2023-02-28T06:36:02;15.73;;;8.97;;
19780;SDS011;10050;55.492;13.506;2023-02-28T06:38:29;19.00;;;9.97;;
19780;SDS011;10050;55.492;13.506;2023-02-28T06:40:56;16.73;;;9.93;;
19780;SDS011;10050;55.492;13.506;2023-02-28T06:43:23;15.07;;;8.60;;
19780;SDS011;10050;55.492;13.506;2023-02-28T06:45:49;13.47;;;8.70;;
19780;SDS011;10050;55.492;13.506;2023-02-28T06:48:15;15.03;;;8.67;;
19780;SDS011;10050;55.492;13.506;2023-02-28T06:50:41;15.57;;;9.47;;
19780;SDS011;10050;55.492;13.506;2023-02-28T06:53:07;17.50;;;9.97;;
19780;SDS011;10050;55.492;13.506;2023-02-28T06:55:33;16.47;;;8.87;;
19780;SDS011;10050;55.492;13.506;2023-02-28T06:57:58;17.43;;;9.43;;
19780;SDS011;10050;55.492;13.506;2023-02-28T07:00:24;16.23;;;9.00;;
19780;SDS011;10050;55.492;13.506;2023-02-28T07:02:50;15.70;;;9.23;;
19780;SDS011;10050;55.492;13.506;2023-02-28T07:05:16;17.67;;;10.07;;
19780;SDS011;10050;55.492;13.506;2023-02-28T07:07:41;16.17;;;9.03;;
19780;SDS011;10050;55.492;13.506;2023-02-28T07:10:10;17.27;;;9.17;;
19780;SDS011;10050;55.492;13.506;2023-02-28T07:12:36;18.80;;;8.27;;
19780;SDS011;10050;55.492;13.506;2023-02-28T07:15:03;16.42;;;10.10;;
19780;SDS011;10050;55.492;13.506;2023-02-28T07:17:29;15.83;;;8.10;;
19780;SDS011;10050;55.492;13.506;2023-02-28T07:19:55;13.33;;;7.20;;
19780;SDS011;10050;55.492;13.506;2023-02-28T07:22:21;9.90;;;6.90;;
19780;SDS011;10050;55.492;13.506;2023-02-28T07:24:46;9.30;;;6.50;;
19780;SDS011;10050;55.492;13.506;2023-02-28T07:27:12;14.20;;;7.33;;
19780;SDS011;10050;55.492;13.506;2023-02-28T07:29:50;19.47;;;6.87;;
